Time;durP1;ratioP1;P1;durP2;ratioP2;P2;SDS_P1;SDS_P2;PMS_P1;PMS_P2;Temp;Humidity;BMP_temperature;BMP_pressure;BME280_temperature;BME280_humidity;BME280_pressure;Samples;Min_cycle;Max_cycle;Signal;HPM_P1;HPM_P2
2021/12/23 00:01:10;;;;;;;28.60;20.40;;;-1.20;99.90;;;;;;5120423;28;20067;-62
2021/12/23 00:03:35;;;;;;;26.60;18.02;;;-1.10;99.90;;;;;;5127573;27;20050;-62
2021/12/23 00:06:01;;;;;;;29.85;18.10;;;-1.00;99.90;;;;;;5126809;28;20044;-62
2021/12/23 00:08:27;;;;;;;27.42;17.80;;;-1.00;99.90;;;;;;5109156;28;20096;-62
2021/12/23 00:10:53;;;;;;;25.63;17.45;;;-1.00;99.90;;;;;;5123940;27;20505;-62
2021/12/23 00:13:19;;;;;;;31.08;19.33;;;-0.90;99.90;;;;;;5124176;28;20051;-62
2021/12/23 00:19:14;;;;;;;25.48;17.92;;;-0.80;99.90;;;;;;5123841;28;20108;-62
2021/12/23 00:23:57;;;;;;;28.20;18.25;;;-0.60;99.90;;;;;;5126826;28;20051;-62
2021/12/23 00:26:24;;;;;;;28.10;17.55;;;-0.60;99.90;;;;;;5126484;28;20047;-62
2021/12/23 00:28:51;;;;;;;26.17;17.75;;;-0.60;99.90;;;;;;5126790;28;20035;-62
2021/12/23 00:31:17;;;;;;;28.73;17.20;;;-0.60;99.90;;;;;;5108660;28;20039;-62
2021/12/23 00:33:44;;;;;;;27.92;18.08;;;-0.70;99.90;;;;;;5126679;28;20031;-62
2021/12/23 00:36:11;;;;;;;28.25;17.35;;;-0.50;99.90;;;;;;5126207;28;20090;-62
2021/12/23 00:38:46;;;;;;;30.52;18.30;;;-0.60;99.90;;;;;;5126712;27;20046;-62
2021/12/23 00:41:13;;;;;;;29.88;18.02;;;-0.60;99.90;;;;;;5126264;28;20059;-62
2021/12/23 00:43:39;;;;;;;29.27;18.17;;;-0.60;99.90;;;;;;5125457;28;20043;-62
2021/12/23 00:46:05;;;;;;;29.13;18.13;;;-0.70;99.90;;;;;;5124864;28;20327;-62
2021/12/23 00:48:31;;;;;;;26.42;18.05;;;-0.70;99.90;;;;;;5126311;28;20128;-62
2021/12/23 00:50:57;;;;;;;30.73;19.52;;;-0.70;99.90;;;;;;5109044;28;20089;-62
2021/12/23 00:53:23;;;;;;;27.95;19.05;;;-0.80;99.90;;;;;;5125361;28;20035;-62
2021/12/23 00:55:52;;;;;;;30.83;19.30;;;-0.80;99.90;;;;;;5107310;28;20065;-62
2021/12/23 00:58:20;;;;;;;26.38;18.25;;;-0.70;99.90;;;;;;5132042;27;20046;-62
2021/12/23 01:00:46;;;;;;;27.63;18.77;;;-0.60;99.90;;;;;;5125188;28;20047;-62
2021/12/23 01:03:12;;;;;;;29.40;18.63;;;-0.70;99.90;;;;;;5095052;28;20039;-62
2021/12/23 01:05:39;;;;;;;28.40;18.92;;;-0.70;99.90;;;;;;5126541;28;20075;-62
2021/12/23 01:08:05;;;;;;;31.25;19.67;;;-0.70;99.90;;;;;;5126354;27;20044;-62
2021/12/23 01:10:31;;;;;;;29.52;19.10;;;-0.70;99.90;;;;;;5108358;28;20172;-62
2021/12/23 01:13:01;;;;;;;26.10;18.63;;;-0.80;99.90;;;;;;5124790;28;20047;-62
2021/12/23 01:18:12;;;;;;;26.95;19.13;;;-0.70;99.90;;;;;;5125737;28;20054;-62
2021/12/23 01:21:02;;;;;;;30.20;18.63;;;-0.70;99.90;;;;;;5125904;28;20059;-62
2021/12/23 01:23:29;;;;;;;34.17;18.85;;;-0.50;99.90;;;;;;5124629;28;20065;-62
2021/12/23 01:25:55;;;;;;;24.70;17.90;;;-0.40;99.90;;;;;;5107378;28;20052;-62
2021/12/23 01:28:21;;;;;;;27.63;18.77;;;-0.40;99.90;;;;;;5107146;28;20048;-62
2021/12/23 01:30:47;;;;;;;27.27;18.10;;;-0.40;99.90;;;;;;5106983;28;20101;-62
2021/12/23 01:33:13;;;;;;;28.80;18.77;;;-0.50;99.90;;;;;;5124507;28;20922;-62
2021/12/23 01:35:40;;;;;;;29.48;19.25;;;-0.60;99.90;;;;;;5106449;28;20044;-62
2021/12/23 01:38:06;;;;;;;28.30;18.83;;;-0.50;99.90;;;;;;5124295;28;20068;-62
2021/12/23 01:40:33;;;;;;;30.83;19.42;;;-0.60;99.90;;;;;;5125462;28;20390;-62
2021/12/23 01:42:59;;;;;;;27.10;19.15;;;-0.60;99.90;;;;;;5124281;28;20051;-62
2021/12/23 01:45:29;;;;;;;26.60;19.02;;;-0.50;99.90;;;;;;5106211;28;20048;-62
2021/12/23 01:47:56;;;;;;;24.80;17.42;;;-0.50;99.90;;;;;;5105508;28;20087;-62
2021/12/23 01:50:26;;;;;;;26.92;17.85;;;-0.60;99.90;;;;;;5124819;28;20496;-62
2021/12/23 01:52:59;;;;;;;27.33;17.67;;;-0.50;99.90;;;;;;5104259;28;20092;-62
2021/12/23 01:55:26;;;;;;;28.02;17.90;;;-0.50;99.90;;;;;;5114038;28;20048;-62
2021/12/23 01:57:52;;;;;;;28.20;19.05;;;-0.50;99.90;;;;;;5124715;28;20042;-62
2021/12/23 02:00:21;;;;;;;25.55;17.25;;;-0.50;99.90;;;;;;5124470;28;20487;-62
2021/12/23 02:02:48;;;;;;;26.77;17.75;;;-0.50;99.90;;;;;;5124013;28;20039;-62
2021/12/23 02:05:14;;;;;;;26.77;17.75;;;-0.50;99.90;;;;;;5124983;28;20104;-62
2021/12/23 02:07:40;;;;;;;26.30;18.38;;;-0.50;99.90;;;;;;5123914;28;20039;-62
2021/12/23 02:10:07;;;;;;;28.70;17.65;;;-0.40;99.90;;;;;;5106140;28;20091;-62
2021/12/23 02:12:33;;;;;;;25.50;16.77;;;-0.50;99.90;;;;;;5103087;28;20089;-62
2021/12/23 02:14:59;;;;;;;25.85;17.15;;;-0.40;99.90;;;;;;5103825;28;20048;-62
2021/12/23 02:17:25;;;;;;;22.85;16.85;;;-0.30;99.90;;;;;;5125060;28;20104;-62
2021/12/23 02:19:55;;;;;;;25.15;15.48;;;-0.20;99.90;;;;;;5105921;28;20049;-62
2021/12/23 02:22:21;;;;;;;19.73;13.77;;;0.00;99.90;;;;;;5124026;28;20035;-62
2021/12/23 02:24:47;;;;;;;28.33;17.27;;;0.00;99.90;;;;;;5123810;28;20039;-62
2021/12/23 02:27:12;;;;;;;27.42;17.50;;;0.00;99.90;;;;;;5123811;28;20126;-62
2021/12/23 02:29:38;;;;;;;27.05;14.82;;;0.10;99.90;;;;;;5124235;28;20169;-62
2021/12/23 02:32:06;;;;;;;24.30;16.75;;;0.00;99.90;;;;;;5124733;28;20078;-62
2021/12/23 02:34:31;;;;;;;23.42;16.00;;;0.10;99.90;;;;;;5124315;28;20058;-62
2021/12/23 02:36:59;;;;;;;24.00;17.38;;;0.10;99.90;;;;;;5123647;28;20043;-62
2021/12/23 02:39:27;;;;;;;27.95;19.08;;;0.00;99.90;;;;;;5123719;28;20081;-62
2021/12/23 02:41:53;;;;;;;24.45;16.70;;;-0.10;99.90;;;;;;5123810;28;20082;-62
2021/12/23 02:44:19;;;;;;;26.20;16.15;;;-0.10;99.90;;;;;;5121327;28;20055;-62
2021/12/23 02:46:45;;;;;;;25.23;16.48;;;0.10;99.90;;;;;;5105976;28;20071;-62
2021/12/23 02:49:11;;;;;;;24.83;17.10;;;0.00;99.90;;;;;;5123786;28;20066;-62
2021/12/23 02:51:38;;;;;;;24.65;17.60;;;0.00;99.90;;;;;;5125514;28;20062;-62
2021/12/23 02:54:04;;;;;;;27.23;17.75;;;-0.10;99.90;;;;;;5125074;28;20036;-62
2021/12/23 02:56:30;;;;;;;24.40;17.50;;;-0.20;99.90;;;;;;5124181;28;20044;-62
2021/12/23 02:58:56;;;;;;;28.10;17.20;;;-0.10;99.90;;;;;;5123993;28;20036;-62
2021/12/23 03:01:23;;;;;;;24.98;16.33;;;-0.20;99.90;;;;;;5123524;28;20043;-62
2021/12/23 03:03:49;;;;;;;26.27;17.02;;;-0.20;99.90;;;;;;5124034;28;20073;-62
2021/12/23 03:06:18;;;;;;;24.08;16.73;;;-0.30;99.90;;;;;;5123698;28;20048;-62
2021/12/23 03:08:53;;;;;;;25.17;15.93;;;-0.30;99.90;;;;;;5120266;28;20546;-62
2021/12/23 03:11:21;;;;;;;25.23;16.65;;;-0.30;99.90;;;;;;5127247;28;20044;-62
2021/12/23 03:13:48;;;;;;;26.10;16.45;;;-0.30;99.90;;;;;;5127182;28;20161;-62
2021/12/23 03:16:18;;;;;;;24.17;16.70;;;-0.30;99.90;;;;;;5109987;28;20345;-62
2021/12/23 03:18:44;;;;;;;26.83;17.75;;;-0.40;99.90;;;;;;5124810;28;20040;-62
2021/12/23 03:21:10;;;;;;;23.55;16.92;;;-0.50;99.90;;;;;;5127284;28;20051;-62
2021/12/23 03:23:37;;;;;;;25.48;16.75;;;-0.40;99.90;;;;;;5127395;28;20066;-62
2021/12/23 03:26:03;;;;;;;22.35;15.57;;;-0.40;99.90;;;;;;5126936;28;20055;-62
2021/12/23 03:28:30;;;;;;;25.73;16.88;;;-0.10;99.90;;;;;;5126752;28;20117;-62
2021/12/23 03:30:56;;;;;;;21.52;14.38;;;-0.10;99.90;;;;;;5126782;28;20043;-62
2021/12/23 03:33:22;;;;;;;24.85;16.33;;;0.00;99.90;;;;;;5120350;28;20441;-62
2021/12/23 03:35:47;;;;;;;23.63;16.65;;;0.30;99.90;;;;;;5108238;28;20040;-62
2021/12/23 03:38:14;;;;;;;23.17;15.77;;;0.20;99.90;;;;;;5128453;28;20068;-62
2021/12/23 03:40:41;;;;;;;24.27;17.30;;;0.20;99.90;;;;;;5127905;27;20059;-62
2021/12/23 03:43:11;;;;;;;27.10;16.80;;;0.10;99.90;;;;;;5128322;28;20472;-62
2021/12/23 03:45:37;;;;;;;17.33;12.80;;;0.00;99.90;;;;;;5127567;28;20130;-62
2021/12/23 03:48:03;;;;;;;21.65;14.00;;;0.00;99.90;;;;;;5128424;27;20039;-62
2021/12/23 03:50:29;;;;;;;25.27;16.05;;;0.20;99.90;;;;;;5092519;28;20055;-62
2021/12/23 03:52:55;;;;;;;23.65;15.93;;;0.40;99.90;;;;;;5126626;28;20048;-62
2021/12/23 03:55:20;;;;;;;19.42;14.55;;;0.40;99.90;;;;;;5126872;28;20039;-62
2021/12/23 03:57:46;;;;;;;23.10;16.52;;;0.60;99.90;;;;;;5127470;28;20040;-62
2021/12/23 04:00:16;;;;;;;22.92;15.60;;;0.50;99.90;;;;;;5127783;28;20069;-62
2021/12/23 04:02:42;;;;;;;24.48;15.90;;;0.60;99.90;;;;;;5126363;28;20503;-62
2021/12/23 04:05:08;;;;;;;21.77;16.05;;;0.50;99.90;;;;;;5126144;28;20050;-62
2021/12/23 04:07:35;;;;;;;25.77;16.05;;;0.40;99.90;;;;;;5125966;28;20058;-62
2021/12/23 04:10:01;;;;;;;24.55;15.90;;;0.40;99.90;;;;;;5126751;28;20511;-62
2021/12/23 04:12:26;;;;;;;36.10;17.17;;;0.60;99.90;;;;;;5127330;28;20519;-62
2021/12/23 04:14:52;;;;;;;24.92;16.20;;;0.50;99.90;;;;;;5127440;28;20121;-62
2021/12/23 04:17:18;;;;;;;25.60;16.30;;;0.60;99.90;;;;;;5110389;27;20039;-62
2021/12/23 04:19:46;;;;;;;23.00;15.15;;;0.70;99.90;;;;;;5125041;28;20356;-62
2021/12/23 04:22:12;;;;;;;23.80;16.08;;;0.70;99.90;;;;;;5125716;28;20093;-62
2021/12/23 04:24:38;;;;;;;23.45;14.40;;;0.70;99.90;;;;;;5126974;28;20119;-62
2021/12/23 04:27:04;;;;;;;21.73;15.80;;;0.70;99.90;;;;;;5125829;27;20050;-62
2021/12/23 04:29:30;;;;;;;24.27;16.38;;;0.70;99.90;;;;;;5125629;28;20032;-62
2021/12/23 04:31:56;;;;;;;24.40;14.98;;;0.60;99.90;;;;;;5107401;28;20122;-62
2021/12/23 04:34:22;;;;;;;26.05;15.35;;;0.70;99.90;;;;;;5126020;28;20381;-62
2021/12/23 04:36:48;;;;;;;27.67;16.85;;;0.70;99.90;;;;;;5107463;28;20051;-62
2021/12/23 04:39:13;;;;;;;26.13;16.45;;;0.60;99.90;;;;;;5125664;28;20063;-62
2021/12/23 04:41:39;;;;;;;24.67;16.17;;;0.60;99.90;;;;;;5129233;27;20480;-62
2021/12/23 04:44:05;;;;;;;24.25;15.52;;;0.60;99.90;;;;;;5128305;27;20300;-62
2021/12/23 04:46:31;;;;;;;24.88;15.98;;;0.70;99.90;;;;;;5126000;28;20048;-62
2021/12/23 04:48:57;;;;;;;22.40;14.77;;;0.60;99.90;;;;;;5126379;28;20073;-62
2021/12/23 04:51:23;;;;;;;24.30;16.20;;;0.60;99.90;;;;;;5126630;28;20088;-62
2021/12/23 04:53:49;;;;;;;24.55;16.63;;;0.40;99.90;;;;;;5122276;28;20044;-62
2021/12/23 04:56:16;;;;;;;26.13;16.88;;;0.40;99.90;;;;;;5108526;28;20071;-62
2021/12/23 04:58:43;;;;;;;24.75;16.00;;;0.50;99.90;;;;;;5125197;28;20361;-62
2021/12/23 05:01:18;;;;;;;25.70;16.95;;;0.40;99.90;;;;;;5125260;28;20055;-62
2021/12/23 05:03:44;;;;;;;24.38;15.35;;;0.30;99.90;;;;;;5125648;27;20059;-62
2021/12/23 05:06:10;;;;;;;25.17;16.10;;;0.40;99.90;;;;;;5125251;28;20114;-62
2021/12/23 05:08:36;;;;;;;23.33;16.27;;;0.30;99.90;;;;;;5126430;27;20067;-62
2021/12/23 05:11:01;;;;;;;23.77;16.33;;;0.20;99.90;;;;;;5124965;28;20039;-62
2021/12/23 05:13:27;;;;;;;21.88;16.05;;;0.30;99.90;;;;;;5125225;28;20051;-62
2021/12/23 05:15:53;;;;;;;21.52;16.10;;;0.20;99.90;;;;;;5125323;28;20062;-62
2021/12/23 05:18:18;;;;;;;23.70;16.02;;;0.20;99.90;;;;;;5125076;28;20035;-62
2021/12/23 05:20:44;;;;;;;23.75;16.35;;;0.20;99.90;;;;;;5124796;28;20051;-62
2021/12/23 05:23:10;;;;;;;24.45;17.13;;;0.20;99.90;;;;;;5107112;28;20104;-62
2021/12/23 05:25:35;;;;;;;24.10;16.58;;;0.20;99.90;;;;;;5125175;28;20104;-62
2021/12/23 05:28:01;;;;;;;30.42;17.45;;;0.20;99.90;;;;;;5124289;28;20035;-62
2021/12/23 05:30:27;;;;;;;25.08;17.13;;;0.20;99.90;;;;;;5124249;28;20116;-62
2021/12/23 05:32:54;;;;;;;26.45;18.25;;;0.20;99.90;;;;;;5110414;28;20036;-62
2021/12/23 05:35:20;;;;;;;26.80;17.70;;;0.20;99.90;;;;;;5125293;28;20486;-62
2021/12/23 05:37:47;;;;;;;29.40;17.80;;;0.30;99.90;;;;;;5125788;28;20140;-62
2021/12/23 05:40:16;;;;;;;25.05;17.88;;;0.30;99.90;;;;;;5126004;28;20100;-63
2021/12/23 05:42:43;;;;;;;25.83;16.80;;;0.30;99.90;;;;;;5125333;28;20039;-62
2021/12/23 05:45:10;;;;;;;25.83;16.98;;;0.40;99.90;;;;;;5128847;27;20118;-62
2021/12/23 05:47:35;;;;;;;26.33;16.50;;;0.30;99.90;;;;;;5125201;28;20048;-62
2021/12/23 05:50:01;;;;;;;21.77;15.55;;;0.30;99.90;;;;;;5124673;28;20046;-62
2021/12/23 05:52:27;;;;;;;25.17;16.95;;;0.30;99.90;;;;;;5123813;28;20112;-62
2021/12/23 05:54:52;;;;;;;24.40;16.30;;;0.30;99.90;;;;;;5117564;28;20052;-62
2021/12/23 05:57:18;;;;;;;29.17;18.23;;;0.50;99.90;;;;;;5124159;28;20484;-62
2021/12/23 05:59:44;;;;;;;22.60;16.02;;;0.30;99.90;;;;;;5125303;28;20052;-62
2021/12/23 06:02:10;;;;;;;26.83;15.00;;;0.50;99.90;;;;;;5123781;28;20044;-62
2021/12/23 06:04:36;;;;;;;26.13;16.38;;;0.50;99.90;;;;;;5109253;28;20039;-62
2021/12/23 06:07:03;;;;;;;24.75;16.75;;;0.50;99.90;;;;;;5124336;28;20071;-62
2021/12/23 06:09:29;;;;;;;25.40;15.43;;;0.40;99.90;;;;;;5124305;28;20043;-62
2021/12/23 06:11:54;;;;;;;24.05;16.42;;;0.50;99.90;;;;;;5123840;28;20126;-62
2021/12/23 06:14:21;;;;;;;24.50;17.02;;;0.50;99.90;;;;;;5124036;28;20066;-62
2021/12/23 06:16:47;;;;;;;25.00;17.20;;;0.50;99.90;;;;;;5040613;28;20557;-63
2021/12/23 06:19:13;;;;;;;28.80;15.80;;;0.50;99.90;;;;;;5097823;28;20044;-62
2021/12/23 06:21:39;;;;;;;28.30;17.48;;;0.50;99.90;;;;;;5074609;28;20455;-63
2021/12/23 06:24:06;;;;;;;25.17;16.05;;;0.50;99.90;;;;;;5100133;28;20047;-63
2021/12/23 06:26:32;;;;;;;27.20;18.15;;;0.40;99.90;;;;;;5072033;28;20546;-63
2021/12/23 06:28:59;;;;;;;26.95;17.92;;;0.50;99.90;;;;;;5097734;28;20092;-62
2021/12/23 06:31:25;;;;;;;24.38;16.98;;;0.40;99.90;;;;;;5094484;28;20090;-62
2021/12/23 06:33:51;;;;;;;27.33;18.50;;;0.40;99.90;;;;;;5095980;28;20043;-62
2021/12/23 06:36:17;;;;;;;26.88;18.50;;;0.50;99.90;;;;;;5118457;28;20062;-62
2021/12/23 06:38:44;;;;;;;29.45;19.40;;;0.60;99.90;;;;;;5109045;28;20125;-62
2021/12/23 06:41:10;;;;;;;27.58;18.85;;;0.50;99.90;;;;;;5116947;28;20040;-64
2021/12/23 06:43:37;;;;;;;26.27;16.73;;;0.40;99.90;;;;;;5110333;27;20080;-62
2021/12/23 06:46:04;;;;;;;25.58;16.73;;;0.40;99.90;;;;;;5103087;28;20075;-63
2021/12/23 06:48:31;;;;;;;24.15;15.35;;;0.70;99.90;;;;;;5084021;27;20043;-62
2021/12/23 06:50:57;;;;;;;26.60;18.08;;;0.80;99.90;;;;;;5121155;27;20040;-62
2021/12/23 06:53:24;;;;;;;27.23;16.52;;;0.70;99.90;;;;;;5114672;27;20146;-62
2021/12/23 06:55:51;;;;;;;28.45;17.80;;;0.60;99.90;;;;;;5121866;27;20088;-63
2021/12/23 06:58:18;;;;;;;24.05;14.32;;;0.70;99.90;;;;;;5094796;27;20039;-62
2021/12/23 07:00:44;;;;;;;30.40;17.92;;;0.70;99.90;;;;;;5131054;27;20123;-63
2021/12/23 07:03:10;;;;;;;30.55;18.00;;;0.80;99.90;;;;;;5066485;28;20044;-62
2021/12/23 07:05:35;;;;;;;27.58;18.42;;;0.80;99.90;;;;;;5110934;28;20051;-62
2021/12/23 07:10:32;;;;;;;30.33;18.40;;;1.10;99.90;;;;;;5115245;28;20070;-62
2021/12/23 07:12:59;;;;;;;31.02;19.90;;;0.90;99.90;;;;;;5115354;27;20051;-62
2021/12/23 07:15:25;;;;;;;31.13;18.23;;;0.70;99.90;;;;;;5106950;27;20055;-62
2021/12/23 07:17:55;;;;;;;26.30;17.95;;;1.00;99.90;;;;;;5078307;28;20060;-62
2021/12/23 07:20:22;;;;;;;26.70;15.98;;;0.80;99.90;;;;;;5099193;28;20047;-62
2021/12/23 07:22:48;;;;;;;26.85;17.48;;;0.80;99.90;;;;;;5069321;28;20495;-62
2021/12/23 07:25:15;;;;;;;28.55;19.05;;;0.80;99.90;;;;;;5098452;28;20044;-63
2021/12/23 07:27:43;;;;;;;27.48;17.50;;;1.00;99.90;;;;;;5088088;28;20546;-62
2021/12/23 07:30:10;;;;;;;25.80;16.15;;;0.90;99.90;;;;;;5105594;28;20054;-63
2021/12/23 07:32:36;;;;;;;28.73;18.65;;;1.00;99.90;;;;;;5082513;28;20056;-64
2021/12/23 07:35:02;;;;;;;29.77;18.55;;;0.90;99.90;;;;;;5119387;28;20043;-61
2021/12/23 07:37:28;;;;;;;27.30;17.80;;;1.00;99.90;;;;;;5097690;28;20090;-61
2021/12/23 07:39:55;;;;;;;26.88;18.75;;;0.80;99.90;;;;;;5101490;28;20158;-61
2021/12/23 07:42:22;;;;;;;28.65;19.17;;;0.80;99.90;;;;;;5061201;28;20044;-61
2021/12/23 07:44:48;;;;;;;28.73;18.73;;;0.80;99.90;;;;;;5077512;28;20508;-60
2021/12/23 07:47:14;;;;;;;30.45;20.27;;;0.70;99.90;;;;;;5060504;28;20157;-61
2021/12/23 07:49:41;;;;;;;29.63;20.35;;;0.90;99.90;;;;;;5092532;28;20052;-61
2021/12/23 07:52:08;;;;;;;28.17;19.50;;;0.80;99.90;;;;;;5077963;28;20072;-61
2021/12/23 07:54:34;;;;;;;30.42;20.98;;;0.70;99.90;;;;;;5075216;28;20455;-61
2021/12/23 07:57:00;;;;;;;29.05;19.45;;;0.90;99.90;;;;;;5063942;28;20139;-60
2021/12/23 07:59:28;;;;;;;22.50;13.48;;;0.80;99.90;;;;;;5072186;28;20113;-61
2021/12/23 08:01:54;;;;;;;31.20;20.45;;;0.90;99.90;;;;;;5061954;28;20052;-61
2021/12/23 08:04:20;;;;;;;32.17;22.10;;;0.90;99.90;;;;;;5087715;28;20223;-60
2021/12/23 08:06:51;;;;;;;33.60;21.92;;;0.80;99.90;;;;;;5081939;28;20459;-61
2021/12/23 08:09:17;;;;;;;33.35;20.75;;;0.80;99.90;;;;;;5088219;28;20036;-63
2021/12/23 08:11:43;;;;;;;30.58;20.27;;;0.90;99.90;;;;;;5065052;28;20059;-63
2021/12/23 08:14:09;;;;;;;35.38;22.60;;;0.80;99.90;;;;;;5069672;28;20044;-63
2021/12/23 08:16:35;;;;;;;32.42;21.25;;;0.70;99.90;;;;;;5048370;28;20574;-63
2021/12/23 08:19:00;;;;;;;34.13;21.98;;;0.70;99.90;;;;;;5079251;28;20052;-63
2021/12/23 08:21:28;;;;;;;36.42;22.38;;;0.70;99.90;;;;;;5068876;28;20056;-63
2021/12/23 08:23:54;;;;;;;32.47;20.50;;;0.80;99.90;;;;;;5064720;28;20089;-63
2021/12/23 08:26:27;;;;;;;31.67;21.02;;;0.90;99.90;;;;;;5089413;28;20146;-61
2021/12/23 08:28:53;;;;;;;32.75;19.73;;;1.00;99.90;;;;;;5103542;28;20077;-62
2021/12/23 08:31:21;;;;;;;37.28;21.48;;;1.00;99.90;;;;;;5088266;28;20711;-60
2021/12/23 08:33:48;;;;;;;36.40;23.77;;;0.90;99.90;;;;;;5097839;28;20039;-60
2021/12/23 08:36:13;;;;;;;36.13;22.52;;;0.90;99.90;;;;;;5092137;28;20044;-61
2021/12/23 08:38:40;;;;;;;33.72;21.83;;;0.80;99.90;;;;;;5096783;28;20059;-60
2021/12/23 08:41:06;;;;;;;36.47;22.80;;;0.70;99.90;;;;;;5095211;28;20059;-60
2021/12/23 08:43:32;;;;;;;35.85;23.75;;;0.70;99.90;;;;;;5093521;27;20053;-60
2021/12/23 08:45:58;;;;;;;34.08;22.10;;;0.70;99.90;;;;;;5106451;28;20067;-60
2021/12/23 08:48:24;;;;;;;33.70;23.23;;;0.80;99.90;;;;;;5095590;28;20105;-60
2021/12/23 08:50:50;;;;;;;39.28;22.92;;;0.70;99.90;;;;;;5099929;28;20105;-61
2021/12/23 08:53:15;;;;;;;37.50;23.65;;;0.70;99.90;;;;;;5102053;28;20131;-60
2021/12/23 08:55:41;;;;;;;38.20;23.20;;;0.60;99.90;;;;;;5098647;28;20044;-61
2021/12/23 08:58:07;;;;;;;36.60;22.33;;;0.70;99.90;;;;;;5102734;27;20055;-60
2021/12/23 09:00:35;;;;;;;39.92;24.00;;;0.80;99.90;;;;;;5101406;28;20086;-60
2021/12/23 09:03:02;;;;;;;41.15;24.70;;;0.60;99.90;;;;;;5102121;27;20438;-60
2021/12/23 09:05:28;;;;;;;38.83;25.00;;;0.70;99.90;;;;;;5100930;27;20043;-61
2021/12/23 09:07:54;;;;;;;39.50;25.85;;;0.60;99.90;;;;;;5080348;28;20044;-60
2021/12/23 09:10:20;;;;;;;41.88;25.48;;;0.70;99.90;;;;;;5085073;28;20043;-60
2021/12/23 09:12:47;;;;;;;39.45;23.67;;;0.50;99.90;;;;;;5063441;28;20052;-60
2021/12/23 09:15:14;;;;;;;41.78;25.25;;;0.80;99.90;;;;;;5075208;28;20052;-60
2021/12/23 09:17:40;;;;;;;39.95;22.63;;;0.70;99.90;;;;;;5095407;28;20083;-61
2021/12/23 09:20:08;;;;;;;41.38;25.50;;;0.70;99.90;;;;;;5098932;28;20044;-61
2021/12/23 09:22:34;;;;;;;42.03;26.50;;;0.70;99.90;;;;;;5087951;28;20058;-60
2021/12/23 09:25:08;;;;;;;41.60;24.08;;;0.60;99.90;;;;;;5103008;28;20048;-60
2021/12/23 09:27:40;;;;;;;42.08;26.13;;;0.60;99.90;;;;;;5094691;28;20055;-61
2021/12/23 09:32:53;;;;;;;43.85;26.33;;;0.80;99.90;;;;;;5087128;28;20134;-60
2021/12/23 09:35:23;;;;;;;44.58;25.92;;;0.70;99.90;;;;;;5097531;28;20044;-60
2021/12/23 09:37:49;;;;;;;45.45;27.10;;;0.70;99.90;;;;;;5088168;28;20081;-61
2021/12/23 09:40:16;;;;;;;46.55;28.30;;;0.70;99.90;;;;;;5093995;28;20044;-60
2021/12/23 09:42:44;;;;;;;43.88;26.67;;;0.70;99.90;;;;;;5098212;28;20350;-64
2021/12/23 09:45:12;;;;;;;48.33;28.88;;;0.80;99.90;;;;;;5109089;28;20082;-61
2021/12/23 09:47:41;;;;;;;46.83;26.00;;;0.70;99.90;;;;;;5086176;28;20085;-63
2021/12/23 09:50:11;;;;;;;46.55;27.52;;;0.80;99.90;;;;;;5108435;28;20078;-64
2021/12/23 09:52:42;;;;;;;45.70;26.40;;;1.00;99.90;;;;;;5093810;28;20039;-64
2021/12/23 09:55:11;;;;;;;46.90;27.52;;;1.00;99.90;;;;;;5105030;28;20055;-64
2021/12/23 09:57:37;;;;;;;42.63;25.73;;;0.80;99.90;;;;;;5097328;28;20052;-64
2021/12/23 10:00:05;;;;;;;53.35;29.40;;;0.80;99.90;;;;;;5102259;28;20028;-64
2021/12/23 10:02:31;;;;;;;49.17;28.48;;;0.80;99.90;;;;;;5087470;28;20747;-64
2021/12/23 10:04:57;;;;;;;47.25;26.15;;;0.70;99.90;;;;;;5078575;28;20413;-63
2021/12/23 10:07:23;;;;;;;50.05;27.88;;;0.90;99.90;;;;;;5087515;28;20395;-63
2021/12/23 10:10:35;;;;;;;51.05;30.05;;;0.80;99.90;;;;;;5099568;28;20069;-63
2021/12/23 10:26:59;;;;;;;54.03;31.10;;;0.80;99.90;;;;;;5071891;28;20052;-63
2021/12/23 10:38:36;;;;;;;52.97;29.58;;;0.90;99.90;;;;;;5056582;28;20049;-62
2021/12/23 10:41:10;;;;;;;53.65;31.00;;;1.00;99.90;;;;;;5115861;28;20047;-63
2021/12/23 10:43:38;;;;;;;54.90;31.20;;;1.00;99.90;;;;;;5102090;28;20449;-62
2021/12/23 10:46:23;;;;;;;57.58;30.33;;;0.90;99.90;;;;;;5099794;28;20356;-62
2021/12/23 10:49:52;;;;;;;58.58;31.88;;;0.80;99.90;;;;;;5088673;28;20044;-62
2021/12/23 10:52:09;;;;;;;56.72;31.35;;;0.80;99.90;;;;;;5078032;28;20059;-63
2021/12/23 11:00:30;;;;;;;55.60;30.00;;;0.80;99.90;;;;;;4980798;28;20080;-63
2021/12/23 11:03:41;;;;;;;60.72;31.58;;;0.80;99.90;;;;;;4987137;28;20066;-63
2021/12/23 11:38:20;;;;;;;62.38;33.00;;;1.10;99.90;;;;;;5096680;28;20241;-60
2021/12/23 11:45:50;;;;;;;;;;;0.90;99.90;;;;;;5088192;28;20051;-59
2021/12/23 11:48:17;;;;;;;58.03;30.67;;;0.90;99.90;;;;;;5065984;28;19973;-61
2021/12/23 11:51:07;;;;;;;62.70;33.75;;;1.10;99.90;;;;;;5099823;28;20085;-60
2021/12/23 11:53:29;;;;;;;62.55;31.23;;;1.00;99.90;;;;;;5073680;28;20085;-60
2021/12/23 11:55:56;;;;;;;65.38;34.17;;;1.00;99.90;;;;;;5105780;28;20040;-60
2021/12/23 11:58:24;;;;;;;61.92;33.05;;;1.00;99.90;;;;;;5079918;28;20051;-60
2021/12/23 12:01:22;;;;;;;62.08;33.28;;;1.10;99.90;;;;;;5091803;28;20773;-60
2021/12/23 12:04:00;;;;;;;59.17;32.10;;;1.10;99.90;;;;;;5092757;28;20055;-60
2021/12/23 12:06:43;;;;;;;64.38;33.65;;;1.00;99.90;;;;;;5104022;28;20047;-60
2021/12/23 12:09:16;;;;;;;64.78;35.88;;;1.10;99.90;;;;;;5071379;28;20063;-60
2021/12/23 12:12:03;;;;;;;61.22;31.40;;;1.00;99.90;;;;;;5080012;28;20703;-60
2021/12/23 12:14:41;;;;;;;68.97;34.45;;;1.00;99.90;;;;;;5075022;28;20052;-60
2021/12/23 12:17:25;;;;;;;70.18;37.05;;;1.00;99.90;;;;;;5091478;28;20082;-60
2021/12/23 12:19:51;;;;;;;69.93;35.42;;;1.00;99.90;;;;;;5096228;28;20051;-60
2021/12/23 12:22:55;;;;;;;73.22;37.00;;;1.00;99.90;;;;;;5107297;28;20043;-60
2021/12/23 12:25:24;;;;;;;67.63;36.78;;;1.00;99.90;;;;;;5118564;28;20353;-60
2021/12/23 12:27:55;;;;;;;66.57;33.00;;;1.10;99.90;;;;;;5108736;28;20044;-60
2021/12/23 12:30:46;;;;;;;76.47;37.22;;;1.00;99.90;;;;;;5119070;27;20071;-60
2021/12/23 12:33:24;;;;;;;70.63;35.53;;;1.10;99.90;;;;;;5107629;28;20048;-60
2021/12/23 12:36:02;;;;;;;66.75;33.35;;;1.00;99.90;;;;;;5116180;27;20648;-60
2021/12/23 12:38:30;;;;;;;66.55;32.83;;;1.00;99.90;;;;;;5111357;27;20072;-60
2021/12/23 12:41:17;;;;;;;69.95;35.42;;;1.10;99.90;;;;;;5118030;28;20047;-60
2021/12/23 12:46:22;;;;;;;70.55;36.17;;;1.10;99.90;;;;;;5110507;28;20050;-60
2021/12/23 12:48:57;;;;;;;67.45;33.55;;;1.20;99.90;;;;;;5108474;27;20066;-60
2021/12/23 12:51:32;;;;;;;65.95;34.58;;;1.10;99.90;;;;;;5118024;28;20082;-60
2021/12/23 12:54:05;;;;;;;66.38;32.67;;;1.20;99.90;;;;;;5091631;27;20077;-61
2021/12/23 12:56:33;;;;;;;61.95;32.13;;;1.30;99.90;;;;;;5099480;28;20062;-60
2021/12/23 12:58:59;;;;;;;64.82;35.05;;;1.30;99.90;;;;;;5107017;28;20220;-60
2021/12/23 13:01:34;;;;;;;69.07;35.33;;;1.30;99.90;;;;;;5119220;27;20070;-60
2021/12/23 13:04:01;;;;;;;66.70;34.65;;;1.20;99.90;;;;;;5116590;27;20119;-60
2021/12/23 13:06:40;;;;;;;69.70;34.72;;;1.20;99.90;;;;;;5121073;27;20044;-60
2021/12/23 13:09:13;;;;;;;68.25;35.75;;;1.20;99.90;;;;;;5075843;28;20059;-60
2021/12/23 13:11:43;;;;;;;65.82;34.05;;;1.20;99.90;;;;;;5117586;28;20036;-60
2021/12/23 13:14:19;;;;;;;62.55;32.67;;;1.20;99.90;;;;;;5087259;28;20082;-60
2021/12/23 13:16:56;;;;;;;60.83;32.13;;;1.30;99.90;;;;;;5099857;28;20241;-60
2021/12/23 13:19:33;;;;;;;67.25;34.05;;;1.40;99.90;;;;;;5089040;28;20062;-60
2021/12/23 13:22:02;;;;;;;68.35;35.53;;;1.30;99.90;;;;;;5099441;28;20043;-60
2021/12/23 13:24:28;;;;;;;63.33;33.78;;;1.40;99.90;;;;;;5088554;28;20190;-60
2021/12/23 13:26:57;;;;;;;63.22;32.72;;;1.30;99.90;;;;;;5119956;27;20298;-60
2021/12/23 13:29:28;;;;;;;61.72;33.22;;;1.20;99.90;;;;;;5106591;27;20205;-60
2021/12/23 13:31:55;;;;;;;65.90;34.40;;;1.20;99.90;;;;;;5118423;28;20626;-60
2021/12/23 13:34:27;;;;;;;65.75;35.45;;;1.10;99.90;;;;;;5071975;28;20055;-60
2021/12/23 13:37:06;;;;;;;66.22;32.85;;;1.10;99.90;;;;;;5118179;28;20047;-60
2021/12/23 13:39:37;;;;;;;58.97;32.53;;;1.30;99.90;;;;;;5069694;28;20040;-60
2021/12/23 13:42:05;;;;;;;62.33;34.13;;;1.40;99.90;;;;;;5096370;28;20052;-60
2021/12/23 13:44:38;;;;;;;64.03;33.13;;;1.30;99.90;;;;;;5048475;28;20045;-60
2021/12/23 13:47:11;;;;;;;58.28;31.90;;;1.30;99.90;;;;;;5096638;28;20196;-60
2021/12/23 13:49:39;;;;;;;63.40;35.40;;;1.20;99.90;;;;;;5085673;28;20291;-60
2021/12/23 13:52:08;;;;;;;70.35;34.72;;;1.10;99.90;;;;;;5087360;28;20054;-61
2021/12/23 13:54:39;;;;;;;65.57;34.22;;;1.10;99.90;;;;;;5086225;28;20052;-60
2021/12/23 13:57:11;;;;;;;72.20;36.00;;;1.10;99.90;;;;;;5080932;28;20052;-60
2021/12/23 13:59:36;;;;;;;66.40;35.13;;;1.10;99.90;;;;;;5098711;28;20039;-60
2021/12/23 14:02:11;;;;;;;70.90;35.47;;;1.00;99.90;;;;;;5113388;28;20046;-60
2021/12/23 14:04:39;;;;;;;64.75;34.08;;;1.00;99.90;;;;;;5101876;27;20059;-60